Terminal Aerodrome Forecast
Issued by NWS Boston, MA

Home | Current Version | Previous Version | Text Only | Print | Product List | Glossary On
Versions: 1 2 3 4 5 6 7 8 9 10 11 12 13 14 15 16 17 18 19 20 21 22 23 24 25
000
FTUS41 KBOX 212341 AAB
TAFBOS
TAF AMD
KBOS 212341Z 2200/2306 26009KT P6SM BKN035 OVC250
     FM220300 26006KT P6SM SCT008 OVC040
     FM221100 VRB03KT 4SM BR OVC040
     FM221400 03004KT P6SM OVC025
     FM221800 05008KT P6SM BKN010
     FM222200 06010G19KT P6SM VCSH OVC010
     FM230300 06012G24KT P6SM VCSH OVC020
     FM230500 06012G25KT P6SM VCSH OVC015=

USA.gov is the U.S. government's official web portal to all federal, state and local government web resources and services.